createdAt,value
2022-10-17T00:02:18.219Z,1.00
2022-10-17T00:04:47.650Z,0.00
2022-10-17T00:07:17.494Z,1.25
2022-10-17T00:09:46.974Z,1.00
2022-10-17T00:12:16.382Z,1.00
2022-10-17T00:14:45.830Z,0.00
2022-10-17T00:17:16.608Z,0.00
2022-10-17T00:19:45.981Z,0.00
2022-10-17T00:22:15.465Z,0.00
2022-10-17T00:24:44.910Z,1.00
2022-10-17T00:27:14.419Z,0.25
2022-10-17T00:29:43.981Z,1.00
2022-10-17T00:32:13.383Z,0.00
2022-10-17T00:34:42.926Z,0.25
2022-10-17T00:37:12.396Z,0.00
2022-10-17T00:39:41.848Z,0.00
2022-10-17T00:42:14.309Z,0.00
2022-10-17T00:44:43.787Z,0.00
2022-10-17T00:47:15.342Z,0.00
2022-10-17T00:49:44.945Z,0.00
2022-10-17T00:52:17.614Z,0.00
2022-10-17T00:54:50.224Z,0.00
2022-10-17T00:57:20.415Z,0.00
2022-10-17T00:59:52.098Z,0.25
2022-10-17T01:02:22.956Z,1.00
2022-10-17T01:04:53.654Z,0.00
2022-10-17T01:07:23.273Z,0.00
2022-10-17T01:09:52.782Z,0.00
2022-10-17T01:12:27.580Z,0.00
2022-10-17T01:15:09.337Z,0.25
2022-10-17T01:17:48.917Z,0.00
2022-10-17T01:20:44.766Z,0.25
2022-10-17T01:23:36.165Z,0.25
2022-10-17T01:26:23.870Z,0.00
2022-10-17T01:29:11.755Z,0.00
2022-10-17T01:31:49.897Z,0.00
2022-10-17T01:34:24.156Z,0.00
2022-10-17T01:36:56.835Z,0.25
2022-10-17T01:39:36.967Z,0.75
2022-10-17T01:42:29.550Z,0.00
2022-10-17T01:45:12.512Z,0.00
2022-10-17T01:47:43.564Z,0.00
2022-10-17T01:50:16.472Z,1.00
2022-10-17T01:52:53.053Z,1.50
2022-10-17T01:55:25.783Z,0.00
2022-10-17T01:57:59.348Z,0.00
2022-10-17T02:00:30.017Z,1.00
2022-10-17T02:03:04.827Z,0.00
2022-10-17T02:05:37.340Z,0.00
2022-10-17T02:08:07.294Z,1.00
2022-10-17T02:10:41.312Z,0.00
2022-10-17T02:13:29.790Z,0.50
2022-10-17T02:15:59.622Z,0.50
2022-10-17T02:18:29.083Z,1.00
2022-10-17T02:21:02.237Z,0.75
2022-10-17T02:23:52.652Z,0.00
2022-10-17T02:26:24.840Z,0.00
2022-10-17T02:29:00.215Z,0.00
2022-10-17T02:31:32.657Z,0.75
2022-10-17T02:34:31.797Z,0.50
2022-10-17T02:37:03.686Z,0.00
2022-10-17T02:39:33.747Z,0.00
2022-10-17T02:42:06.064Z,0.75
2022-10-17T02:44:35.825Z,0.50
2022-10-17T02:47:15.967Z,1.75
2022-10-17T02:49:47.983Z,0.00
2022-10-17T02:52:23.792Z,0.00
2022-10-17T02:54:56.706Z,0.00
2022-10-17T02:57:29.852Z,0.75
2022-10-17T03:00:01.979Z,0.00
2022-10-17T03:02:40.008Z,0.50
2022-10-17T03:05:12.255Z,0.75
2022-10-17T03:07:42.299Z,0.00
2022-10-17T03:10:11.966Z,0.00
2022-10-17T03:12:41.614Z,0.75
2022-10-17T03:15:12.494Z,0.00
2022-10-17T03:17:42.843Z,0.75
2022-10-17T03:20:13.245Z,0.00
2022-10-17T03:22:42.668Z,0.00
2022-10-17T03:25:12.758Z,0.00
2022-10-17T03:27:42.163Z,0.50
2022-10-17T03:30:11.841Z,0.00
2022-10-17T03:32:41.598Z,0.00
2022-10-17T03:35:15.057Z,0.00
2022-10-17T03:37:48.975Z,0.00
2022-10-17T03:40:19.188Z,0.25
2022-10-17T03:42:48.649Z,0.00
2022-10-17T03:45:18.466Z,0.00
2022-10-17T03:47:49.153Z,0.00
2022-10-17T03:50:18.696Z,0.00
2022-10-17T03:52:51.485Z,0.25
2022-10-17T03:55:21.472Z,0.00
2022-10-17T03:57:50.935Z,0.00
2022-10-17T04:00:22.447Z,0.00
2022-10-17T04:03:00.502Z,0.00
2022-10-17T04:05:30.105Z,0.25
2022-10-17T04:08:02.403Z,0.00
2022-10-17T04:10:54.968Z,0.25
2022-10-17T04:13:24.464Z,0.00
2022-10-17T04:15:57.800Z,0.25
2022-10-17T04:18:27.402Z,0.00
2022-10-17T04:20:56.917Z,0.00
2022-10-17T04:23:28.507Z,0.00
2022-10-17T04:26:04.900Z,0.00
2022-10-17T04:28:35.679Z,0.00
2022-10-17T04:31:07.093Z,0.00
2022-10-17T04:33:48.890Z,0.00
2022-10-17T04:36:21.749Z,0.00
2022-10-17T04:38:51.533Z,1.00
2022-10-17T04:41:21.294Z,0.00
2022-10-17T04:43:51.466Z,0.00
2022-10-17T04:46:22.718Z,0.00
2022-10-17T04:48:52.195Z,0.00
2022-10-17T04:51:24.428Z,0.00
2022-10-17T04:54:12.709Z,0.00
2022-10-17T04:56:45.054Z,0.00
2022-10-17T04:59:14.487Z,0.00
2022-10-17T05:01:46.182Z,0.00
2022-10-17T05:04:15.707Z,0.00
2022-10-17T05:06:45.297Z,0.00
2022-10-17T05:09:37.555Z,0.00
2022-10-17T05:12:10.263Z,0.00
2022-10-17T05:14:43.544Z,0.00
2022-10-17T05:17:13.363Z,0.00
2022-10-17T05:19:42.758Z,0.00
2022-10-17T05:22:12.406Z,0.00
2022-10-17T05:24:43.469Z,0.00
2022-10-17T05:27:13.547Z,0.00
2022-10-17T05:29:43.418Z,0.00
2022-10-17T05:32:20.567Z,0.00
2022-10-17T05:34:50.317Z,1.00
2022-10-17T05:37:20.330Z,0.00
2022-10-17T05:39:53.103Z,0.00
2022-10-17T05:42:22.717Z,0.00
2022-10-17T05:44:52.299Z,0.00
2022-10-17T05:47:22.089Z,0.00
2022-10-17T05:49:52.645Z,0.00
2022-10-17T05:52:34.381Z,0.00
2022-10-17T05:55:13.437Z,0.00
2022-10-17T05:57:42.887Z,0.00
2022-10-17T06:00:17.147Z,0.00
2022-10-17T06:02:55.947Z,0.00
2022-10-17T06:05:27.134Z,0.00
2022-10-17T06:08:01.123Z,0.00
2022-10-17T06:10:35.614Z,0.50
2022-10-17T06:13:05.726Z,0.00
2022-10-17T06:15:35.225Z,0.00
2022-10-17T06:18:08.572Z,0.00
2022-10-17T06:20:40.550Z,0.00
2022-10-17T06:23:13.948Z,0.00
2022-10-17T06:26:09.532Z,0.00
2022-10-17T06:28:39.958Z,0.00
2022-10-17T06:31:10.678Z,0.00
2022-10-17T06:33:40.232Z,0.00
2022-10-17T06:36:12.384Z,0.00
2022-10-17T06:38:41.932Z,0.00
2022-10-17T06:41:23.106Z,0.00
2022-10-17T06:43:55.104Z,0.00
2022-10-17T06:46:47.255Z,0.00
2022-10-17T06:49:19.048Z,0.00
2022-10-17T06:51:54.018Z,0.00
2022-10-17T06:54:31.649Z,0.00
2022-10-17T06:57:07.543Z,0.00
2022-10-17T06:59:53.042Z,0.00
2022-10-17T07:02:28.258Z,0.00
2022-10-17T07:05:01.013Z,0.00
2022-10-17T07:07:32.637Z,0.00
2022-10-17T07:10:02.798Z,0.00
2022-10-17T07:12:32.162Z,0.00
2022-10-17T07:15:03.076Z,0.00
2022-10-17T07:17:33.376Z,0.00
2022-10-17T07:20:03.201Z,0.00
2022-10-17T07:22:36.270Z,0.00
2022-10-17T07:25:06.773Z,0.00
2022-10-17T07:27:43.679Z,0.00
2022-10-17T07:30:14.118Z,0.00
2022-10-17T07:32:55.815Z,1.00
2022-10-17T07:35:27.207Z,0.00
2022-10-17T07:37:57.401Z,0.00
2022-10-17T07:40:26.830Z,0.00
2022-10-17T07:42:57.734Z,0.00
2022-10-17T07:45:29.079Z,0.75
2022-10-17T07:47:59.778Z,0.00
2022-10-17T07:50:30.599Z,0.00
2022-10-17T07:53:00.327Z,0.00
2022-10-17T07:55:29.762Z,0.00
2022-10-17T07:58:00.240Z,0.00
2022-10-17T08:00:29.923Z,0.00
2022-10-17T08:03:00.413Z,0.00
2022-10-17T08:05:30.662Z,0.00
2022-10-17T08:08:00.152Z,0.00
2022-10-17T08:10:31.017Z,0.00
2022-10-17T08:13:00.675Z,0.00
2022-10-17T08:15:31.843Z,0.00
2022-10-17T08:18:02.351Z,0.00
2022-10-17T08:20:31.790Z,1.00
2022-10-17T08:23:01.224Z,0.00
2022-10-17T08:25:30.915Z,0.00
2022-10-17T08:28:00.502Z,0.00
2022-10-17T08:30:32.066Z,0.00
2022-10-17T08:33:01.722Z,1.00
2022-10-17T08:35:31.151Z,0.00
2022-10-17T08:38:03.701Z,0.00
2022-10-17T08:40:36.894Z,0.00
2022-10-17T08:43:09.109Z,0.00
2022-10-17T08:45:45.206Z,0.00
2022-10-17T08:48:17.505Z,0.00
2022-10-17T08:50:49.795Z,0.00
2022-10-17T08:53:43.225Z,0.00
2022-10-17T08:56:24.644Z,0.00
2022-10-17T08:59:00.261Z,0.00
2022-10-17T09:01:38.455Z,0.00
2022-10-17T09:04:23.809Z,0.00
2022-10-17T09:07:03.704Z,0.00
2022-10-17T09:09:58.987Z,0.00
2022-10-17T09:12:28.632Z,0.00
2022-10-17T09:15:16.978Z,0.00
2022-10-17T09:17:51.267Z,0.00
2022-10-17T09:20:21.104Z,0.00
2022-10-17T09:25:34.076Z,0.00
2022-10-17T09:28:06.922Z,0.00
2022-10-17T09:30:45.216Z,0.00
2022-10-17T09:33:28.452Z,0.75
2022-10-17T09:36:12.840Z,0.00
2022-10-17T09:38:44.560Z,0.00
2022-10-17T09:41:42.959Z,0.00
2022-10-17T09:44:26.543Z,0.50
2022-10-17T09:46:56.237Z,0.75
2022-10-17T09:49:32.794Z,1.00
2022-10-17T09:52:08.193Z,0.00
2022-10-17T09:54:48.184Z,2.00
2022-10-17T09:57:18.908Z,0.00
2022-10-17T09:59:48.414Z,1.50
2022-10-17T10:02:19.701Z,0.00
2022-10-17T10:05:05.551Z,0.50
2022-10-17T10:07:38.544Z,0.00
2022-10-17T10:10:10.096Z,1.75
2022-10-17T10:12:40.916Z,0.75
2022-10-17T10:15:28.735Z,2.75
2022-10-17T10:17:58.276Z,1.00
2022-10-17T10:20:27.751Z,3.00
2022-10-17T10:23:07.971Z,1.00
2022-10-17T10:25:38.129Z,0.50
2022-10-17T10:28:13.519Z,4.25
2022-10-17T10:30:48.903Z,3.50
2022-10-17T10:33:21.360Z,8.00
2022-10-17T10:35:57.177Z,10.25
2022-10-17T10:38:27.175Z,8.00
2022-10-17T10:41:10.095Z,9.50
2022-10-17T10:43:48.957Z,8.25
2022-10-17T10:46:23.009Z,9.75
2022-10-17T10:48:53.718Z,8.00
2022-10-17T10:51:25.807Z,8.25
2022-10-17T10:53:58.795Z,8.00
2022-10-17T10:56:33.475Z,8.50
2022-10-17T10:59:25.068Z,8.00
2022-10-17T11:01:54.675Z,6.75
2022-10-17T11:04:42.442Z,6.00
2022-10-17T11:07:17.516Z,6.00
2022-10-17T11:10:00.440Z,7.75
2022-10-17T11:12:32.698Z,4.75
2022-10-17T11:15:31.734Z,5.75
2022-10-17T11:18:24.570Z,6.50
2022-10-17T11:20:54.387Z,6.00
2022-10-17T11:23:44.941Z,9.25
2022-10-17T11:26:28.383Z,6.75
2022-10-17T11:28:59.955Z,5.75
2022-10-17T11:31:32.534Z,5.75
2022-10-17T11:34:09.027Z,5.00
2022-10-17T11:36:42.370Z,6.75
2022-10-17T11:39:24.797Z,6.25
2022-10-17T11:42:03.451Z,7.25
2022-10-17T11:44:38.374Z,7.25
2022-10-17T11:47:13.988Z,6.75
2022-10-17T11:49:50.123Z,7.25
2022-10-17T11:53:05.135Z,5.75
2022-10-17T11:55:27.403Z,6.00
2022-10-17T11:58:06.687Z,6.00
2022-10-17T12:01:00.459Z,5.25
2022-10-17T12:03:39.045Z,6.75
2022-10-17T12:06:11.543Z,5.50
2022-10-17T12:08:56.494Z,6.50
2022-10-17T12:11:26.283Z,8.25
2022-10-17T12:13:57.751Z,5.00
2022-10-17T12:16:27.257Z,5.00
2022-10-17T12:19:03.224Z,5.25
2022-10-17T12:21:52.380Z,5.75
2022-10-17T12:24:33.665Z,6.25
2022-10-17T12:27:25.893Z,5.75
2022-10-17T12:30:02.081Z,6.50
2022-10-17T12:32:46.930Z,4.75
2022-10-17T12:35:23.184Z,6.50
2022-10-17T12:37:53.005Z,5.25
2022-10-17T12:40:48.631Z,5.75
2022-10-17T12:43:18.535Z,4.25
2022-10-17T12:45:56.162Z,5.25
2022-10-17T12:48:43.657Z,5.75
2022-10-17T12:54:17.009Z,4.25
2022-10-17T12:56:47.906Z,6.75
2022-10-17T12:59:23.286Z,5.75
2022-10-17T13:01:58.211Z,5.25
2022-10-17T13:04:28.863Z,5.25
2022-10-17T13:06:59.943Z,4.25
2022-10-17T13:09:29.469Z,6.00
2022-10-17T13:12:00.898Z,4.50
2022-10-17T13:14:30.652Z,6.25
2022-10-17T13:17:01.889Z,7.00
2022-10-17T13:19:33.127Z,5.00
2022-10-17T13:22:07.087Z,5.75
2022-10-17T13:24:41.874Z,3.75
2022-10-17T13:27:24.130Z,6.75
2022-10-17T13:29:54.203Z,6.50
2022-10-17T13:32:24.848Z,6.75
2022-10-17T13:35:11.375Z,6.00
2022-10-17T13:37:48.116Z,5.00
2022-10-17T13:40:40.721Z,5.25
2022-10-17T13:43:17.170Z,5.75
2022-10-17T13:46:32.456Z,5.50
2022-10-17T13:48:59.131Z,4.75
2022-10-17T13:51:29.371Z,6.75
2022-10-17T13:53:59.939Z,5.75
2022-10-17T13:56:31.377Z,4.75
2022-10-17T13:59:04.887Z,5.50
2022-10-17T14:01:34.981Z,3.50
2022-10-17T14:04:11.661Z,4.75
2022-10-17T14:06:49.745Z,5.50
2022-10-17T14:09:24.680Z,4.50
2022-10-17T14:12:03.124Z,5.00
2022-10-17T14:14:51.579Z,7.25
2022-10-17T14:17:28.542Z,5.50
2022-10-17T14:23:21.084Z,3.75
2022-10-17T14:25:45.504Z,5.00
2022-10-17T14:28:16.715Z,3.75
2022-10-17T14:30:57.169Z,3.75
2022-10-17T14:33:32.482Z,5.00
2022-10-17T14:36:03.769Z,4.00
2022-10-17T14:38:34.463Z,5.00
2022-10-17T14:44:16.763Z,4.00
2022-10-17T14:46:50.721Z,1.75
2022-10-17T14:49:35.548Z,3.00
2022-10-17T14:52:33.067Z,3.00
2022-10-17T14:55:17.316Z,3.75
2022-10-17T14:57:48.320Z,5.00
2022-10-17T15:00:20.896Z,4.75
2022-10-17T15:02:51.856Z,4.25
2022-10-17T15:05:22.546Z,4.50
2022-10-17T15:07:52.791Z,4.75
2022-10-17T15:10:34.537Z,4.00
2022-10-17T15:13:26.738Z,3.25
2022-10-17T15:15:55.276Z,3.00
2022-10-17T15:18:24.998Z,4.00
2022-10-17T15:21:04.569Z,4.00
2022-10-17T15:23:36.674Z,4.00
2022-10-17T15:26:13.009Z,3.50
2022-10-17T15:28:43.395Z,3.75
2022-10-17T15:31:18.135Z,4.75
2022-10-17T15:33:48.851Z,2.25
2022-10-17T15:36:22.160Z,4.00
2022-10-17T15:38:53.895Z,4.00
2022-10-17T15:41:24.716Z,3.00
2022-10-17T15:43:54.431Z,3.75
2022-10-17T15:46:31.663Z,4.00
2022-10-17T15:49:06.317Z,3.00
2022-10-17T15:51:36.278Z,4.00
2022-10-17T15:54:07.753Z,3.00
2022-10-17T15:56:42.268Z,3.25
2022-10-17T15:59:17.455Z,3.75
2022-10-17T16:01:47.376Z,3.00
2022-10-17T16:04:17.387Z,2.25
2022-10-17T16:06:47.145Z,3.00
2022-10-17T16:09:16.848Z,3.50
2022-10-17T16:11:46.763Z,2.00
2022-10-17T16:14:17.903Z,3.00
2022-10-17T16:16:47.966Z,2.00
2022-10-17T16:19:17.683Z,5.00
2022-10-17T16:21:47.126Z,2.75
2022-10-17T16:24:16.553Z,3.00
2022-10-17T16:26:45.983Z,3.50
2022-10-17T16:29:15.584Z,2.25
2022-10-17T16:31:46.347Z,3.50
2022-10-17T16:34:16.271Z,3.75
2022-10-17T16:36:45.650Z,3.25
2022-10-17T16:39:15.123Z,4.00
2022-10-17T16:41:44.625Z,4.00
2022-10-17T16:44:17.812Z,2.75
2022-10-17T16:46:47.211Z,2.75
2022-10-17T16:49:18.655Z,2.75
2022-10-17T16:51:48.078Z,2.00
2022-10-17T16:54:17.568Z,3.00
2022-10-17T16:56:46.955Z,4.00
2022-10-17T16:59:16.376Z,3.00
2022-10-17T17:01:45.829Z,3.25
2022-10-17T17:04:15.327Z,3.25
2022-10-17T17:09:15.033Z,2.25
2022-10-17T17:11:44.594Z,3.50
2022-10-17T17:14:13.989Z,3.75
2022-10-17T17:16:44.690Z,3.25
2022-10-17T17:19:15.812Z,2.00
2022-10-17T17:21:51.355Z,3.00
2022-10-17T17:24:24.423Z,4.00
2022-10-17T17:26:55.269Z,4.00
2022-10-17T17:29:25.250Z,3.50
2022-10-17T17:31:54.735Z,2.50
2022-10-17T17:34:24.165Z,3.00
2022-10-17T17:36:53.804Z,4.25
2022-10-17T17:39:23.213Z,2.50
2022-10-17T17:41:52.758Z,2.75
2022-10-17T17:44:22.130Z,3.25
2022-10-17T17:46:51.591Z,3.50
2022-10-17T17:49:21.002Z,3.25
2022-10-17T17:51:50.504Z,4.00
2022-10-17T17:54:19.983Z,3.00
2022-10-17T17:56:49.538Z,3.50
2022-10-17T17:59:18.933Z,3.00
2022-10-17T18:01:48.494Z,4.00
2022-10-17T18:04:21.713Z,3.75
2022-10-17T18:06:51.103Z,3.50
2022-10-17T18:09:21.694Z,4.25
2022-10-17T18:11:51.554Z,3.25
2022-10-17T18:14:25.149Z,4.50
2022-10-17T18:16:55.045Z,3.00
2022-10-17T18:19:25.099Z,5.00
2022-10-17T18:21:54.622Z,2.75
2022-10-17T18:24:24.147Z,4.00
2022-10-17T18:26:55.434Z,3.25
2022-10-17T18:29:25.159Z,2.25
2022-10-17T18:31:54.626Z,3.75
2022-10-17T18:34:24.094Z,4.00
2022-10-17T18:36:54.358Z,3.00
2022-10-17T18:39:23.742Z,3.00
2022-10-17T18:41:53.146Z,3.50
2022-10-17T18:44:22.927Z,3.00
2022-10-17T18:46:52.508Z,3.00
2022-10-17T18:49:26.427Z,2.50
2022-10-17T18:51:56.311Z,3.25
2022-10-17T18:54:25.895Z,3.00
2022-10-17T18:56:56.451Z,3.00
2022-10-17T18:59:26.282Z,3.50
2022-10-17T19:01:55.742Z,3.75
2022-10-17T19:04:25.135Z,3.00
2022-10-17T19:06:54.550Z,3.25
2022-10-17T19:09:23.936Z,2.75
2022-10-17T19:11:53.558Z,3.00
2022-10-17T19:14:23.032Z,3.25
2022-10-17T19:16:55.115Z,3.00
2022-10-17T19:19:26.271Z,3.50
2022-10-17T19:21:55.864Z,4.00
2022-10-17T19:24:26.484Z,4.00
2022-10-17T19:26:57.673Z,3.00
2022-10-17T19:29:28.627Z,3.50
2022-10-17T19:31:58.078Z,3.00
2022-10-17T19:34:29.082Z,2.00
2022-10-17T19:36:58.525Z,2.25
2022-10-17T19:39:28.047Z,4.00
2022-10-17T19:41:57.593Z,3.25
2022-10-17T19:44:27.199Z,3.00
2022-10-17T19:46:56.714Z,2.00
2022-10-17T19:49:26.200Z,2.00
2022-10-17T19:51:55.601Z,3.00
2022-10-17T19:54:25.031Z,3.00
2022-10-17T19:56:54.458Z,2.75
2022-10-17T20:01:59.025Z,2.25
2022-10-17T20:04:29.512Z,3.25
2022-10-17T20:07:01.318Z,2.00
2022-10-17T20:09:30.706Z,2.25
2022-10-17T20:12:00.105Z,2.00
2022-10-17T20:14:29.518Z,2.75
2022-10-17T20:16:58.900Z,3.00
2022-10-17T20:19:28.279Z,2.00
2022-10-17T20:21:57.690Z,2.25
2022-10-17T20:24:27.100Z,3.25
2022-10-17T20:26:56.448Z,2.00
2022-10-17T20:29:26.605Z,3.00
2022-10-17T20:31:56.028Z,2.75
2022-10-17T20:34:25.704Z,3.00
2022-10-17T20:36:55.188Z,2.50
2022-10-17T20:39:24.614Z,3.00
2022-10-17T20:41:54.646Z,4.00
2022-10-17T20:44:25.154Z,4.00
2022-10-17T20:47:01.687Z,2.00
2022-10-17T20:49:32.073Z,3.00
2022-10-17T20:52:02.179Z,2.00
2022-10-17T20:54:31.909Z,3.00
2022-10-17T20:57:04.039Z,2.00
2022-10-17T20:59:37.479Z,4.00
2022-10-17T21:02:07.486Z,3.00
2022-10-17T21:04:52.002Z,2.00
2022-10-17T21:07:23.523Z,3.00
2022-10-17T21:09:53.388Z,3.00
2022-10-17T21:12:42.815Z,1.00
2022-10-17T21:15:12.543Z,1.75
2022-10-17T21:17:41.972Z,1.75
2022-10-17T21:20:11.773Z,2.00
2022-10-17T21:22:41.222Z,2.00
2022-10-17T21:25:10.912Z,3.00
2022-10-17T21:27:40.975Z,2.00
2022-10-17T21:30:10.611Z,2.00
2022-10-17T21:32:55.046Z,2.25
2022-10-17T21:35:24.850Z,3.00
2022-10-17T21:37:54.362Z,2.00
2022-10-17T21:40:23.782Z,2.75
2022-10-17T21:42:53.238Z,3.00
2022-10-17T21:45:25.777Z,2.00
2022-10-17T21:48:12.323Z,2.00
2022-10-17T21:50:42.851Z,2.00
2022-10-17T21:53:12.290Z,2.50
2022-10-17T21:55:41.787Z,2.00
2022-10-17T21:58:11.260Z,3.75
2022-10-17T22:00:40.771Z,2.00
2022-10-17T22:03:10.961Z,3.00
2022-10-17T22:05:40.667Z,3.00
2022-10-17T22:08:10.211Z,3.00
2022-10-17T22:10:39.683Z,2.00
2022-10-17T22:13:09.160Z,2.00
2022-10-17T22:15:38.591Z,2.00
2022-10-17T22:18:08.039Z,2.00
2022-10-17T22:20:37.543Z,2.00
2022-10-17T22:23:07.016Z,2.50
2022-10-17T22:25:36.479Z,2.00
2022-10-17T22:28:05.968Z,2.00
2022-10-17T22:30:35.377Z,2.00
2022-10-17T22:33:04.888Z,1.00
2022-10-17T22:35:34.292Z,1.75
2022-10-17T22:38:03.743Z,3.00
2022-10-17T22:40:33.199Z,2.75
2022-10-17T22:43:02.744Z,3.00
2022-10-17T22:45:32.346Z,3.00
2022-10-17T22:48:01.816Z,4.00
2022-10-17T22:50:31.294Z,4.00
2022-10-17T22:53:00.780Z,4.00
2022-10-17T22:55:30.234Z,3.00
2022-10-17T22:57:59.587Z,3.00
2022-10-17T23:03:03.269Z,3.00
2022-10-17T23:05:32.752Z,5.00
2022-10-17T23:08:02.265Z,3.25
2022-10-17T23:10:31.744Z,2.50
2022-10-17T23:13:01.262Z,3.50
2022-10-17T23:15:30.692Z,5.75
2022-10-17T23:18:00.670Z,4.75
2022-10-17T23:20:30.989Z,6.00
2022-10-17T23:23:01.055Z,7.00
2022-10-17T23:25:30.528Z,4.75
2022-10-17T23:28:00.001Z,5.75
2022-10-17T23:30:29.762Z,6.25
2022-10-17T23:32:59.241Z,6.00
2022-10-17T23:35:28.669Z,5.00
2022-10-17T23:37:58.042Z,4.00
2022-10-17T23:40:27.444Z,6.50
2022-10-17T23:42:56.867Z,10.00
2022-10-17T23:45:26.324Z,7.50
2022-10-17T23:47:55.804Z,6.75
2022-10-17T23:50:25.291Z,6.50
2022-10-17T23:52:54.842Z,8.50
2022-10-17T23:55:24.252Z,6.00
2022-10-17T23:57:53.677Z,6.25
